首页
METAR-TAF:

METAR-TAF

机场 :

科斯雷國際機場

科斯雷, 密克罗尼西亚群岛

纬度: 05-21N, 经度: 162-57E, 海拔: 3米

当前天气观测

该预报发布于35分钟前的19:55 UTC
风速5节,风向
温度 27°C
湿度 84%
气压 1009 hPa
能見度: 16.1公里
多云层高于1900英尺
多云层高于30000英尺

METAR: PTSA 171955Z 10005KT 10SM BKN019 BKN300 27/24 A2981

时间: 07:30 (20:30 UTC)

预报

该预报发布于2小时和52分钟前的17:38 UTC
预报有效从17日的 18点(UTC)到 18日的 18点(UTC)
风速6节,风向东南
能見度: 10公里
散云层高于1800英尺

TAF: PTSA 171738Z 1718/1818 13006KT P6SM SCT018

超过4000个机场的气象观测和天气预报(METAR&TAF报告)。

可查询的气象台以黄色和红色小点在地图上表示。

将鼠标移到小点上方,可查看气象台名称。

然后点击查看天气观测和预报。

如需切换地图:点击带黑十字的绿色按钮放大地图;点击带横线的绿色按钮缩小地图;或者点击绿色箭头查看邻近地区的地图。


METAR-TAF: